Terminal Aerodrome Forecast
Issued by NWS

Home | Current Version | Previous Version | Text Only | Print | Product List | Glossary On
Versions: 1 2 3 4 5 6 7 8 9 10 11 12 13 14
000
FTUS43 KDVN 011121
TAFBRL
TAF
KBRL 011121Z 0112/0212 20006KT P6SM FEW040 SCT250
      TEMPO 0208/0212 5SM BR=

USA.gov is the U.S. government's official web portal to all federal, state and local government web resources and services.